createdAt,value
2023-02-02T00:01:39.374Z,9.00
2023-02-02T00:04:07.074Z,9.00
2023-02-02T00:06:34.546Z,9.10
2023-02-02T00:09:04.404Z,9.10
2023-02-02T00:11:32.133Z,9.10
2023-02-02T00:14:01.002Z,9.00
2023-02-02T00:16:31.009Z,9.20
2023-02-02T00:19:00.446Z,9.20
2023-02-02T00:21:28.258Z,9.20
2023-02-02T00:23:55.883Z,9.10
2023-02-02T00:26:23.240Z,9.10
2023-02-02T00:28:52.329Z,9.10
2023-02-02T00:31:19.926Z,9.10
2023-02-02T00:33:48.866Z,9.10
2023-02-02T00:36:17.000Z,9.10
2023-02-02T00:38:47.614Z,9.10
2023-02-02T00:41:15.711Z,9.20
2023-02-02T00:43:43.833Z,9.10
2023-02-02T00:46:17.095Z,9.20
2023-02-02T00:48:44.318Z,9.00
2023-02-02T00:51:12.435Z,8.90
2023-02-02T00:53:41.017Z,8.90
2023-02-02T00:56:08.419Z,9.10
2023-02-02T00:58:36.665Z,9.10
2023-02-02T01:01:04.260Z,9.10
2023-02-02T01:03:31.575Z,9.10
2023-02-02T01:05:58.929Z,9.10
2023-02-02T01:08:26.505Z,9.10
2023-02-02T01:10:54.107Z,9.20
2023-02-02T01:13:22.770Z,9.20
2023-02-02T01:15:50.056Z,9.20
2023-02-02T01:18:17.233Z,9.20
2023-02-02T01:20:44.281Z,9.20
2023-02-02T01:23:12.543Z,9.30
2023-02-02T01:25:39.488Z,9.30
2023-02-02T01:28:08.798Z,9.30
2023-02-02T01:30:37.214Z,9.30
2023-02-02T01:33:04.375Z,9.30
2023-02-02T01:35:32.414Z,9.20
2023-02-02T01:38:01.280Z,9.20
2023-02-02T01:40:32.641Z,9.20
2023-02-02T01:43:00.993Z,9.10
2023-02-02T01:45:29.585Z,9.20
2023-02-02T01:47:59.885Z,9.10
2023-02-02T01:50:31.363Z,9.10
2023-02-02T01:53:01.621Z,9.10
2023-02-02T01:55:30.943Z,9.20
2023-02-02T01:58:03.598Z,9.10
2023-02-02T02:00:30.907Z,9.00
2023-02-02T02:03:06.935Z,9.10
2023-02-02T02:05:43.659Z,9.20
2023-02-02T02:08:34.874Z,9.30
2023-02-02T02:11:02.780Z,9.30
2023-02-02T02:13:51.266Z,9.30
2023-02-02T02:16:42.660Z,9.40
2023-02-02T02:19:29.453Z,9.30
2023-02-02T02:22:35.659Z,9.20
2023-02-02T02:25:54.289Z,9.30
2023-02-02T02:28:43.519Z,9.10
2023-02-02T02:31:35.430Z,9.20
2023-02-02T02:34:03.875Z,9.10
2023-02-02T02:36:52.309Z,9.00
2023-02-02T02:39:29.785Z,9.00
2023-02-02T02:42:00.960Z,9.00
2023-02-02T02:44:29.450Z,8.90
2023-02-02T02:46:57.263Z,8.90
2023-02-02T02:49:24.744Z,9.00
2023-02-02T02:51:53.711Z,8.90
2023-02-02T02:54:31.288Z,9.00
2023-02-02T02:57:11.403Z,9.00
2023-02-02T03:00:06.147Z,9.00
2023-02-02T03:02:49.972Z,9.00
2023-02-02T03:05:20.004Z,9.00
2023-02-02T03:08:15.205Z,9.00
2023-02-02T03:10:46.945Z,9.10
2023-02-02T03:13:16.849Z,9.00
2023-02-02T03:15:48.184Z,9.00
2023-02-02T03:18:19.231Z,9.00
2023-02-02T03:20:47.052Z,8.90
2023-02-02T03:23:14.764Z,8.90
2023-02-02T03:25:41.917Z,8.90
2023-02-02T03:28:09.949Z,8.90
2023-02-02T03:30:38.446Z,8.90
2023-02-02T03:33:07.570Z,8.90
2023-02-02T03:35:34.630Z,9.00
2023-02-02T03:38:01.810Z,8.90
2023-02-02T03:40:29.898Z,8.90
2023-02-02T03:42:58.144Z,8.80
2023-02-02T03:45:28.100Z,8.90
2023-02-02T03:47:55.112Z,8.80
2023-02-02T03:50:22.338Z,9.00
2023-02-02T03:52:49.228Z,8.80
2023-02-02T03:55:16.191Z,8.90
2023-02-02T03:57:44.030Z,8.80
2023-02-02T04:00:11.757Z,8.80
2023-02-02T04:02:41.548Z,8.80
2023-02-02T04:05:08.905Z,9.00
2023-02-02T04:07:36.912Z,8.80
2023-02-02T04:10:05.095Z,8.80
2023-02-02T04:12:32.078Z,8.80
2023-02-02T04:15:00.258Z,8.90
2023-02-02T04:17:27.380Z,8.90
2023-02-02T04:19:58.263Z,8.70
2023-02-02T04:22:26.320Z,8.70
2023-02-02T04:24:53.322Z,8.70
2023-02-02T04:27:20.505Z,8.70
2023-02-02T04:29:47.634Z,8.70
2023-02-02T04:32:16.297Z,8.70
2023-02-02T04:34:43.721Z,8.50
2023-02-02T04:37:12.053Z,8.50
2023-02-02T04:39:39.065Z,8.50
2023-02-02T04:42:06.040Z,8.50
2023-02-02T04:44:33.028Z,8.40
2023-02-02T04:47:00.160Z,8.40
2023-02-02T04:49:27.231Z,8.40
2023-02-02T04:51:54.206Z,8.40
2023-02-02T04:54:21.134Z,8.50
2023-02-02T04:56:47.991Z,8.40
2023-02-02T04:59:14.905Z,8.40
2023-02-02T05:01:41.930Z,8.50
2023-02-02T05:04:08.975Z,8.30
2023-02-02T05:06:35.949Z,8.30
2023-02-02T05:09:03.154Z,8.30
2023-02-02T05:11:31.023Z,8.30
2023-02-02T05:13:58.032Z,8.30
2023-02-02T05:16:28.511Z,8.20
2023-02-02T05:18:57.931Z,8.30
2023-02-02T05:21:25.170Z,8.40
2023-02-02T05:23:52.163Z,8.40
2023-02-02T05:26:24.369Z,8.40
2023-02-02T05:28:51.964Z,8.60
2023-02-02T05:31:19.888Z,8.40
2023-02-02T05:33:46.815Z,8.40
2023-02-02T05:36:15.013Z,8.60
2023-02-02T05:38:41.925Z,8.60
2023-02-02T05:41:09.026Z,8.50
2023-02-02T05:43:36.066Z,8.60
2023-02-02T05:46:03.022Z,8.60
2023-02-02T05:48:30.563Z,8.60
2023-02-02T05:51:01.227Z,8.50
2023-02-02T05:53:30.257Z,8.60
2023-02-02T05:55:57.449Z,8.80
2023-02-02T05:58:24.754Z,8.60
2023-02-02T06:00:56.677Z,8.60
2023-02-02T06:03:24.458Z,8.70
2023-02-02T06:05:51.517Z,8.70
2023-02-02T06:08:19.869Z,8.70
2023-02-02T06:10:46.921Z,8.70
2023-02-02T06:13:14.173Z,8.70
2023-02-02T06:15:43.160Z,8.60
2023-02-02T06:18:10.331Z,8.60
2023-02-02T06:20:37.601Z,8.50
2023-02-02T06:23:05.194Z,8.50
2023-02-02T06:25:32.480Z,8.40
2023-02-02T06:28:00.906Z,8.50
2023-02-02T06:30:28.388Z,8.40
2023-02-02T06:32:55.430Z,8.30
2023-02-02T06:35:22.853Z,8.30
2023-02-02T06:37:50.899Z,8.40
2023-02-02T06:40:18.199Z,8.10
2023-02-02T06:42:45.117Z,8.00
2023-02-02T06:45:12.414Z,8.00
2023-02-02T06:47:39.370Z,7.90
2023-02-02T06:50:09.833Z,7.90
2023-02-02T06:52:37.020Z,7.90
2023-02-02T06:55:04.062Z,7.90
2023-02-02T06:57:32.717Z,7.90
2023-02-02T06:59:59.649Z,7.90
2023-02-02T07:02:26.606Z,7.90
2023-02-02T07:04:53.789Z,7.80
2023-02-02T07:07:20.896Z,7.80
2023-02-02T07:09:57.771Z,7.80
2023-02-02T07:12:26.913Z,7.80
2023-02-02T07:14:54.272Z,8.00
2023-02-02T07:17:21.266Z,8.00
2023-02-02T07:19:48.268Z,8.10
2023-02-02T07:22:16.345Z,7.90
2023-02-02T07:24:43.370Z,8.00
2023-02-02T07:27:10.370Z,8.00
2023-02-02T07:29:37.346Z,8.00
2023-02-02T07:32:04.673Z,8.00
2023-02-02T07:34:31.713Z,8.00
2023-02-02T07:37:00.154Z,8.00
2023-02-02T07:39:27.352Z,8.00
2023-02-02T07:41:56.031Z,7.90
2023-02-02T07:44:30.963Z,7.90
2023-02-02T07:46:57.920Z,8.00
2023-02-02T07:49:25.022Z,7.90
2023-02-02T07:51:53.078Z,8.00
2023-02-02T07:54:20.545Z,8.00
2023-02-02T07:56:47.568Z,8.00
2023-02-02T07:59:14.845Z,8.00
2023-02-02T08:01:42.277Z,8.10
2023-02-02T08:04:11.970Z,8.10
2023-02-02T08:06:40.273Z,8.10
2023-02-02T08:09:08.978Z,8.00
2023-02-02T08:11:37.362Z,8.00
2023-02-02T08:14:05.735Z,8.00
2023-02-02T08:16:33.928Z,8.10
2023-02-02T08:19:01.116Z,8.10
2023-02-02T08:21:28.050Z,8.00
2023-02-02T08:23:55.259Z,8.00
2023-02-02T08:26:25.689Z,8.10
2023-02-02T08:28:56.103Z,8.10
2023-02-02T08:31:32.564Z,8.10
2023-02-02T08:34:00.019Z,8.20
2023-02-02T08:36:28.488Z,8.20
2023-02-02T08:38:55.438Z,8.20
2023-02-02T08:41:23.974Z,8.30
2023-02-02T08:43:51.810Z,8.30
2023-02-02T08:46:21.280Z,8.30
2023-02-02T08:48:48.952Z,8.30
2023-02-02T08:51:18.892Z,8.40
2023-02-02T08:53:48.000Z,8.50
2023-02-02T08:56:20.606Z,8.40
2023-02-02T08:58:55.815Z,8.40
2023-02-02T09:01:28.573Z,8.50
2023-02-02T09:03:57.991Z,8.50
2023-02-02T09:06:37.913Z,8.50
2023-02-02T09:09:06.706Z,8.60
2023-02-02T09:11:34.092Z,8.70
2023-02-02T09:14:06.390Z,8.70
2023-02-02T09:16:34.497Z,9.00
2023-02-02T09:19:02.442Z,8.70
2023-02-02T09:21:33.677Z,8.80
2023-02-02T09:24:01.142Z,8.80
2023-02-02T09:26:29.788Z,8.90
2023-02-02T09:29:04.809Z,8.90
2023-02-02T09:31:34.992Z,8.90
2023-02-02T09:34:03.601Z,9.00
2023-02-02T09:36:30.689Z,8.90
2023-02-02T09:38:58.242Z,8.80
2023-02-02T09:41:38.421Z,8.90
2023-02-02T09:44:39.322Z,9.00
2023-02-02T09:47:29.071Z,9.10
2023-02-02T09:50:21.792Z,9.30
2023-02-02T09:53:23.018Z,9.30
2023-02-02T09:55:57.141Z,9.30
2023-02-02T09:59:02.165Z,9.30
2023-02-02T10:01:39.120Z,9.40
2023-02-02T10:04:18.935Z,9.50
2023-02-02T10:06:56.575Z,9.50
2023-02-02T10:09:36.995Z,9.50
2023-02-02T10:12:07.267Z,9.40
2023-02-02T10:15:00.017Z,9.40
2023-02-02T10:17:38.969Z,9.40
2023-02-02T10:20:44.728Z,9.50
2023-02-02T10:23:28.374Z,9.50
2023-02-02T10:26:13.929Z,9.60
2023-02-02T10:29:02.690Z,9.70
2023-02-02T10:31:38.752Z,9.70
2023-02-02T10:34:25.909Z,9.80
2023-02-02T10:37:14.071Z,9.80
2023-02-02T10:40:03.287Z,9.80
2023-02-02T10:43:14.372Z,9.70
2023-02-02T10:45:43.773Z,9.80
2023-02-02T10:48:25.761Z,9.90
2023-02-02T10:50:56.974Z,9.90
2023-02-02T10:53:28.621Z,10.00
2023-02-02T10:56:15.486Z,10.10
2023-02-02T10:59:15.913Z,10.10
2023-02-02T11:01:43.094Z,10.30
2023-02-02T11:04:29.835Z,10.30
2023-02-02T11:06:56.977Z,10.20
2023-02-02T11:09:31.546Z,10.30
2023-02-02T11:12:06.961Z,10.40
2023-02-02T11:14:45.772Z,10.40
2023-02-02T11:17:26.425Z,10.40
2023-02-02T11:19:56.136Z,10.50
2023-02-02T11:22:28.791Z,10.60
2023-02-02T11:24:57.109Z,10.60
2023-02-02T11:27:41.698Z,10.60
2023-02-02T11:30:38.721Z,10.60
2023-02-02T11:33:34.912Z,10.50
2023-02-02T11:36:05.022Z,10.50
2023-02-02T11:38:32.606Z,10.60
2023-02-02T11:41:06.846Z,10.60
2023-02-02T11:43:59.537Z,10.90
2023-02-02T11:46:31.262Z,11.00
2023-02-02T11:49:03.313Z,11.10
2023-02-02T11:51:31.803Z,11.10
2023-02-02T11:54:17.769Z,11.10
2023-02-02T11:56:51.774Z,11.10
2023-02-02T11:59:43.697Z,11.10
2023-02-02T12:02:19.759Z,11.10
2023-02-02T12:04:52.468Z,11.20
2023-02-02T12:07:29.509Z,11.40
2023-02-02T12:10:04.805Z,11.50
2023-02-02T12:13:00.564Z,11.50
2023-02-02T12:16:08.826Z,11.60
2023-02-02T12:18:36.165Z,11.40
2023-02-02T12:21:07.264Z,11.30
2023-02-02T12:24:11.792Z,11.20
2023-02-02T12:26:46.275Z,11.10
2023-02-02T12:29:48.565Z,10.90
2023-02-02T12:32:21.493Z,10.90
2023-02-02T12:34:57.597Z,10.80
2023-02-02T12:37:43.448Z,10.70
2023-02-02T12:40:51.677Z,10.70
2023-02-02T12:43:27.658Z,10.60
2023-02-02T12:46:14.607Z,10.60
2023-02-02T12:48:52.257Z,10.60
2023-02-02T12:51:44.284Z,10.60
2023-02-02T12:54:48.718Z,10.70
2023-02-02T12:57:37.909Z,10.80
2023-02-02T13:00:53.397Z,10.90
2023-02-02T13:03:37.372Z,11.00
2023-02-02T13:06:19.490Z,10.90
2023-02-02T13:08:55.650Z,11.00
2023-02-02T13:11:42.093Z,11.10
2023-02-02T13:14:27.060Z,11.30
2023-02-02T13:17:00.124Z,11.40
2023-02-02T13:19:45.878Z,11.50
2023-02-02T13:22:23.860Z,11.90
2023-02-02T13:24:55.658Z,12.10
2023-02-02T13:27:24.468Z,12.30
2023-02-02T13:29:57.604Z,12.40
2023-02-02T13:32:32.874Z,12.50
2023-02-02T13:35:25.493Z,12.50
2023-02-02T13:38:04.231Z,12.50
2023-02-02T13:40:38.995Z,12.60
2023-02-02T13:43:29.088Z,12.60
2023-02-02T13:46:12.051Z,12.70
2023-02-02T13:48:49.130Z,12.60
2023-02-02T13:51:39.382Z,12.20
2023-02-02T13:54:31.605Z,11.90
2023-02-02T13:57:35.761Z,11.60
2023-02-02T14:00:25.507Z,11.40
2023-02-02T14:02:58.345Z,11.30
2023-02-02T14:05:31.193Z,11.40
2023-02-02T14:08:07.697Z,11.80
2023-02-02T14:10:42.344Z,12.30
2023-02-02T14:13:45.811Z,12.90
2023-02-02T14:16:44.303Z,13.30
2023-02-02T14:19:17.167Z,13.20
2023-02-02T14:21:44.113Z,12.80
2023-02-02T14:24:26.325Z,12.50
2023-02-02T14:27:10.153Z,12.20
2023-02-02T14:29:57.107Z,12.10
2023-02-02T14:32:30.606Z,12.20
2023-02-02T14:35:00.065Z,12.20
2023-02-02T14:37:26.969Z,12.30
2023-02-02T14:40:08.867Z,12.30
2023-02-02T14:43:19.420Z,12.10
2023-02-02T14:46:10.857Z,12.00
2023-02-02T14:48:41.787Z,11.80
2023-02-02T14:51:17.972Z,11.70
2023-02-02T14:54:18.756Z,11.60
2023-02-02T14:56:52.129Z,11.60
2023-02-02T14:59:33.999Z,11.50
2023-02-02T15:02:13.302Z,11.50
2023-02-02T15:04:50.229Z,11.50
2023-02-02T15:07:38.226Z,11.40
2023-02-02T15:10:05.928Z,11.40
2023-02-02T15:12:45.624Z,11.40
2023-02-02T15:15:31.022Z,11.40
2023-02-02T15:18:13.506Z,11.40
2023-02-02T15:20:52.174Z,11.30
2023-02-02T15:23:34.428Z,10.80
2023-02-02T15:26:12.816Z,10.50
2023-02-02T15:28:51.394Z,10.40
2023-02-02T15:31:46.892Z,10.40
2023-02-02T15:34:42.418Z,10.40
2023-02-02T15:37:15.944Z,10.30
2023-02-02T15:39:52.026Z,10.30
2023-02-02T15:42:54.616Z,10.20
2023-02-02T15:45:31.463Z,10.30
2023-02-02T15:47:59.960Z,10.20
2023-02-02T15:50:27.900Z,10.30
2023-02-02T15:52:57.298Z,10.20
2023-02-02T15:55:29.955Z,10.20
2023-02-02T15:57:57.019Z,10.20
2023-02-02T16:00:26.475Z,10.10
2023-02-02T16:03:00.638Z,10.20
2023-02-02T16:05:36.850Z,10.20
2023-02-02T16:08:13.853Z,10.20
2023-02-02T16:10:41.157Z,10.20
2023-02-02T16:13:20.573Z,10.30
2023-02-02T16:16:02.361Z,10.30
2023-02-02T16:18:30.433Z,10.40
2023-02-02T16:21:01.412Z,10.50
2023-02-02T16:23:33.637Z,10.40
2023-02-02T16:26:04.691Z,10.30
2023-02-02T16:28:33.066Z,10.30
2023-02-02T16:31:01.726Z,10.40
2023-02-02T16:33:42.931Z,10.40
2023-02-02T16:36:26.861Z,10.50
2023-02-02T16:38:55.745Z,10.50
2023-02-02T16:41:35.079Z,10.60
2023-02-02T16:44:41.284Z,10.60
2023-02-02T16:47:32.663Z,10.50
2023-02-02T16:50:16.700Z,10.50
2023-02-02T16:53:19.596Z,10.50
2023-02-02T16:55:51.361Z,10.50
2023-02-02T16:58:22.842Z,10.50
2023-02-02T17:01:16.068Z,10.50
2023-02-02T17:03:54.761Z,10.40
2023-02-02T17:06:50.206Z,10.50
2023-02-02T17:09:40.865Z,10.50
2023-02-02T17:12:32.221Z,10.40
2023-02-02T17:15:06.067Z,10.30
2023-02-02T17:17:33.936Z,10.20
2023-02-02T17:20:01.827Z,10.00
2023-02-02T17:22:32.565Z,10.20
2023-02-02T17:25:02.854Z,10.20
2023-02-02T17:27:35.192Z,10.20
2023-02-02T17:30:02.838Z,10.20
2023-02-02T17:32:30.273Z,10.20
2023-02-02T17:34:58.203Z,10.20
2023-02-02T17:37:25.844Z,10.20
2023-02-02T17:39:57.110Z,10.20
2023-02-02T17:42:27.859Z,10.30
2023-02-02T17:44:58.610Z,10.20
2023-02-02T17:47:25.944Z,10.30
2023-02-02T17:49:52.998Z,10.10
2023-02-02T17:52:19.954Z,10.30
2023-02-02T17:54:46.962Z,10.30
2023-02-02T17:57:15.468Z,10.50
2023-02-02T17:59:42.538Z,10.40
2023-02-02T18:02:15.245Z,10.40
2023-02-02T18:04:45.275Z,10.40
2023-02-02T18:07:15.721Z,10.40
2023-02-02T18:09:42.855Z,10.40
2023-02-02T18:12:12.763Z,10.30
2023-02-02T18:14:40.800Z,10.30
2023-02-02T18:17:09.580Z,10.10
2023-02-02T18:19:36.903Z,10.30
2023-02-02T18:22:04.547Z,10.30
2023-02-02T18:24:32.524Z,10.30
2023-02-02T18:27:01.705Z,10.30
2023-02-02T18:29:29.949Z,10.20
2023-02-02T18:31:59.134Z,10.20
2023-02-02T18:34:30.436Z,10.20
2023-02-02T18:36:58.884Z,10.20
2023-02-02T18:39:26.364Z,10.20
2023-02-02T18:41:54.061Z,10.20
2023-02-02T18:44:22.878Z,10.20
2023-02-02T18:46:53.239Z,10.20
2023-02-02T18:49:22.768Z,10.10
2023-02-02T18:51:50.718Z,10.20
2023-02-02T18:54:17.673Z,10.20
2023-02-02T18:56:44.644Z,10.20
2023-02-02T18:59:12.092Z,10.30
2023-02-02T19:01:40.264Z,10.20
2023-02-02T19:04:08.185Z,10.30
2023-02-02T19:06:53.598Z,10.30
2023-02-02T19:09:22.680Z,10.30
2023-02-02T19:11:51.790Z,10.30
2023-02-02T19:14:24.888Z,10.30
2023-02-02T19:16:52.867Z,10.30
2023-02-02T19:19:29.237Z,10.30
2023-02-02T19:21:59.932Z,10.20
2023-02-02T19:24:39.911Z,10.20
2023-02-02T19:27:21.952Z,10.20
2023-02-02T19:29:56.264Z,10.30
2023-02-02T19:32:26.204Z,10.30
2023-02-02T19:34:58.684Z,10.30
2023-02-02T19:37:32.366Z,10.30
2023-02-02T19:40:08.577Z,10.30
2023-02-02T19:42:38.771Z,10.30
2023-02-02T19:45:21.322Z,10.40
2023-02-02T19:47:48.789Z,10.30
2023-02-02T19:50:18.944Z,10.30
2023-02-02T19:52:48.271Z,10.20
2023-02-02T19:55:28.054Z,10.30
2023-02-02T19:58:01.283Z,10.30
2023-02-02T20:00:31.516Z,10.30
2023-02-02T20:02:59.990Z,10.30
2023-02-02T20:05:32.125Z,10.30
2023-02-02T20:08:05.644Z,10.40
2023-02-02T20:10:42.618Z,10.30
2023-02-02T20:13:29.771Z,10.30
2023-02-02T20:16:03.703Z,10.30
2023-02-02T20:18:44.381Z,10.30
2023-02-02T20:21:36.558Z,10.30
2023-02-02T20:24:04.384Z,10.30
2023-02-02T20:26:38.380Z,10.30
2023-02-02T20:29:40.239Z,10.20
2023-02-02T20:32:19.331Z,10.20
2023-02-02T20:34:46.724Z,10.20
2023-02-02T20:37:13.699Z,10.10
2023-02-02T20:39:50.667Z,10.20
2023-02-02T20:42:17.932Z,10.20
2023-02-02T20:44:47.166Z,10.20
2023-02-02T20:47:14.052Z,10.20
2023-02-02T20:49:41.006Z,10.30
2023-02-02T20:52:13.814Z,10.30
2023-02-02T20:54:41.064Z,10.20
2023-02-02T20:57:08.065Z,10.30
2023-02-02T20:59:35.825Z,10.20
2023-02-02T21:02:03.679Z,10.20
2023-02-02T21:04:35.682Z,10.30
2023-02-02T21:07:02.877Z,10.20
2023-02-02T21:09:29.933Z,10.20
2023-02-02T21:11:56.989Z,10.30
2023-02-02T21:14:24.112Z,10.20
2023-02-02T21:16:55.421Z,10.20
2023-02-02T21:19:29.433Z,10.20
2023-02-02T21:21:57.013Z,10.20
2023-02-02T21:24:25.058Z,10.20
2023-02-02T21:26:54.716Z,10.20
2023-02-02T21:29:22.385Z,10.20
2023-02-02T21:31:49.913Z,10.20
2023-02-02T21:34:18.905Z,10.20
2023-02-02T21:36:48.173Z,10.20
2023-02-02T21:39:33.500Z,10.20
2023-02-02T21:42:12.866Z,10.30
2023-02-02T21:44:43.516Z,10.30
2023-02-02T21:47:23.404Z,10.30
2023-02-02T21:49:50.269Z,10.30
2023-02-02T21:52:19.661Z,10.30
2023-02-02T21:54:48.243Z,10.40
2023-02-02T21:57:27.931Z,10.40
2023-02-02T21:59:56.463Z,10.30
2023-02-02T22:02:38.221Z,10.50
2023-02-02T22:05:24.640Z,10.30
2023-02-02T22:07:53.456Z,10.30
2023-02-02T22:10:38.932Z,10.30
2023-02-02T22:13:38.264Z,10.30
2023-02-02T22:16:21.194Z,10.40
2023-02-02T22:18:48.399Z,10.40
2023-02-02T22:21:20.590Z,10.40
2023-02-02T22:23:47.986Z,10.40
2023-02-02T22:26:47.731Z,10.30
2023-02-02T22:29:18.307Z,10.30
2023-02-02T22:31:45.411Z,10.40
2023-02-02T22:34:12.472Z,10.50
2023-02-02T22:36:39.448Z,10.40
2023-02-02T22:39:06.373Z,10.30
2023-02-02T22:41:33.678Z,10.40
2023-02-02T22:44:00.609Z,10.30
2023-02-02T22:46:27.682Z,10.30
2023-02-02T22:48:55.509Z,10.30
2023-02-02T22:51:22.441Z,10.40
2023-02-02T22:53:49.425Z,10.40
2023-02-02T22:56:16.437Z,10.40
2023-02-02T22:58:43.525Z,10.40
2023-02-02T23:01:11.896Z,10.50
2023-02-02T23:03:38.849Z,10.40
2023-02-02T23:06:05.789Z,10.60
2023-02-02T23:08:33.017Z,10.40
2023-02-02T23:11:00.243Z,10.50
2023-02-02T23:13:27.240Z,10.40
2023-02-02T23:15:54.220Z,10.40
2023-02-02T23:18:21.132Z,10.50
2023-02-02T23:20:48.877Z,10.40
2023-02-02T23:23:15.835Z,10.40
2023-02-02T23:25:42.975Z,10.40
2023-02-02T23:28:10.544Z,10.40
2023-02-02T23:30:38.165Z,10.30
2023-02-02T23:33:05.136Z,10.30
2023-02-02T23:35:31.937Z,10.10
2023-02-02T23:38:00.434Z,10.10
2023-02-02T23:40:27.947Z,10.10
2023-02-02T23:42:55.164Z,10.20
2023-02-02T23:45:22.173Z,10.30
2023-02-02T23:47:49.044Z,10.30
2023-02-02T23:50:16.118Z,10.40
2023-02-02T23:52:43.206Z,10.40
2023-02-02T23:55:11.329Z,10.40
2023-02-02T23:57:38.786Z,10.40
